createdAt,value
2023-04-12T00:00:18.547Z,100724.84
2023-04-12T00:02:46.821Z,100717.94
2023-04-12T00:05:14.760Z,100713.84
2023-04-12T00:07:43.321Z,100710.69
2023-04-12T00:10:11.513Z,100703.19
2023-04-12T00:12:41.765Z,100704.53
2023-04-12T00:15:14.969Z,100699.75
2023-04-12T00:17:41.702Z,100703.75
2023-04-12T00:20:13.344Z,100693.75
2023-04-12T00:22:44.369Z,100686.19
2023-04-12T00:25:12.326Z,100683.66
2023-04-12T00:27:40.330Z,100679.03
2023-04-12T00:30:08.956Z,100673.94
2023-04-12T00:32:39.657Z,100676.78
2023-04-12T00:35:10.820Z,100677.78
2023-04-12T00:37:42.203Z,100676.19
2023-04-12T00:40:10.380Z,100671.59
2023-04-12T00:42:41.261Z,100673.72
2023-04-12T00:45:13.917Z,100676.97
2023-04-12T00:47:44.386Z,100664.81
2023-04-12T00:50:13.225Z,100670.69
2023-04-12T00:52:41.038Z,100668.72
2023-04-12T00:55:10.854Z,100660.44
2023-04-12T00:57:42.277Z,100661.75
2023-04-12T01:00:12.914Z,100659.56
2023-04-12T01:02:48.008Z,100662.81
2023-04-12T01:05:22.129Z,100657.66
2023-04-12T01:07:54.204Z,100664.78
2023-04-12T01:10:30.437Z,100660.16
2023-04-12T01:13:05.565Z,100654.00
2023-04-12T01:15:35.827Z,100642.69
2023-04-12T01:18:07.243Z,100644.56
2023-04-12T01:20:44.539Z,100631.16
2023-04-12T01:23:30.058Z,100638.84
2023-04-12T01:26:16.405Z,100629.19
2023-04-12T01:28:44.459Z,100625.03
2023-04-12T01:31:12.877Z,100623.59
2023-04-12T01:33:42.367Z,100628.41
2023-04-12T01:36:19.939Z,100619.56
2023-04-12T01:38:47.657Z,100624.56
2023-04-12T01:41:14.580Z,100620.13
2023-04-12T01:43:42.951Z,100617.09
2023-04-12T01:46:27.711Z,100596.69
2023-04-12T01:48:54.823Z,100598.44
2023-04-12T01:51:35.835Z,100594.72
2023-04-12T01:54:11.586Z,100599.44
2023-04-12T01:56:46.656Z,100586.06
2023-04-12T01:59:16.429Z,100588.56
2023-04-12T02:01:44.428Z,100585.06
2023-04-12T02:04:11.715Z,100581.88
2023-04-12T02:06:39.212Z,100579.41
2023-04-12T02:09:08.583Z,100573.13
2023-04-12T02:11:35.076Z,100568.94
2023-04-12T02:14:01.598Z,100559.72
2023-04-12T02:16:29.536Z,100555.16
2023-04-12T02:18:57.470Z,100556.63
2023-04-12T02:21:23.925Z,100555.56
2023-04-12T02:23:50.752Z,100550.66
2023-04-12T02:26:17.203Z,100537.00
2023-04-12T02:28:44.487Z,100523.38
2023-04-12T02:31:12.141Z,100527.69
2023-04-12T02:33:38.710Z,100535.06
2023-04-12T02:36:10.207Z,100517.22
2023-04-12T02:38:36.690Z,100512.38
2023-04-12T02:41:03.148Z,100508.94
2023-04-12T02:43:29.629Z,100507.59
2023-04-12T02:45:56.117Z,100503.03
2023-04-12T02:48:22.627Z,100495.31
2023-04-12T02:50:49.064Z,100490.94
2023-04-12T02:53:16.093Z,100494.69
2023-04-12T02:55:42.556Z,100486.28
2023-04-12T02:58:09.034Z,100486.22
2023-04-12T03:00:35.598Z,100473.56
2023-04-12T03:03:03.779Z,100464.69
2023-04-12T03:05:30.516Z,100454.75
2023-04-12T03:07:57.030Z,100454.03
2023-04-12T03:10:23.677Z,100447.81
2023-04-12T03:12:50.214Z,100438.41
2023-04-12T03:15:17.960Z,100439.06
2023-04-12T03:17:45.102Z,100437.72
2023-04-12T03:20:12.144Z,100433.47
2023-04-12T03:22:38.751Z,100435.63
2023-04-12T03:25:05.985Z,100423.69
2023-04-12T03:27:32.803Z,100418.38
2023-04-12T03:29:59.271Z,100413.03
2023-04-12T03:32:25.854Z,100425.25
2023-04-12T03:34:52.377Z,100412.31
2023-04-12T03:37:19.569Z,100413.97
2023-04-12T03:39:48.142Z,100416.56
2023-04-12T03:42:29.367Z,100401.00
2023-04-12T03:44:58.661Z,100392.56
2023-04-12T03:47:25.509Z,100391.19
2023-04-12T03:50:10.250Z,100385.34
2023-04-12T03:52:38.147Z,100382.53
2023-04-12T03:55:07.103Z,100372.19
2023-04-12T03:57:33.855Z,100363.03
2023-04-12T04:00:00.327Z,100369.16
2023-04-12T04:02:27.464Z,100362.34
2023-04-12T04:04:54.193Z,100361.00
2023-04-12T04:07:22.438Z,100356.19
2023-04-12T04:09:50.028Z,100334.41
2023-04-12T04:12:16.612Z,100324.47
2023-04-12T04:14:43.281Z,100325.66
2023-04-12T04:17:09.729Z,100317.53
2023-04-12T04:19:36.209Z,100323.00
2023-04-12T04:22:02.866Z,100316.13
2023-04-12T04:24:29.920Z,100315.16
2023-04-12T04:26:56.427Z,100311.94
2023-04-12T04:29:23.716Z,100307.97
2023-04-12T04:31:50.845Z,100302.81
2023-04-12T04:34:19.162Z,100304.47
2023-04-12T04:36:46.919Z,100293.38
2023-04-12T04:39:13.477Z,100287.19
2023-04-12T04:41:41.377Z,100284.03
2023-04-12T04:44:11.379Z,100280.47
2023-04-12T04:46:38.251Z,100278.28
2023-04-12T04:49:05.574Z,100272.38
2023-04-12T04:51:32.233Z,100279.25
2023-04-12T04:53:59.191Z,100258.13
2023-04-12T04:56:26.265Z,100269.25
2023-04-12T04:58:54.638Z,100254.22
2023-04-12T05:01:26.043Z,100258.03
2023-04-12T05:03:52.770Z,100251.94
2023-04-12T05:06:19.312Z,100247.16
2023-04-12T05:08:45.902Z,100244.00
2023-04-12T05:11:12.363Z,100240.34
2023-04-12T05:13:38.841Z,100246.22
2023-04-12T05:16:09.024Z,100242.53
2023-04-12T05:18:35.893Z,100227.25
2023-04-12T05:21:05.860Z,100239.41
2023-04-12T05:23:36.022Z,100232.66
2023-04-12T05:26:02.538Z,100232.03
2023-04-12T05:28:29.028Z,100225.66
2023-04-12T05:30:55.519Z,100225.44
2023-04-12T05:33:22.042Z,100220.31
2023-04-12T05:35:48.618Z,100223.53
2023-04-12T05:38:15.181Z,100209.63
2023-04-12T05:40:43.964Z,100209.69
2023-04-12T05:43:13.318Z,100215.50
2023-04-12T05:45:41.439Z,100201.66
2023-04-12T05:48:08.645Z,100188.28
2023-04-12T05:50:35.369Z,100185.00
2023-04-12T05:53:02.208Z,100187.19
2023-04-12T05:55:30.020Z,100184.44
2023-04-12T05:57:57.632Z,100175.59
2023-04-12T06:00:24.336Z,100180.19
2023-04-12T06:02:51.692Z,100165.88
2023-04-12T06:05:18.360Z,100174.72
2023-04-12T06:07:48.807Z,100161.06
2023-04-12T06:10:17.162Z,100170.13
2023-04-12T06:12:44.033Z,100169.16
2023-04-12T06:15:10.924Z,100161.50
2023-04-12T06:17:37.616Z,100152.75
2023-04-12T06:20:10.627Z,100151.78
2023-04-12T06:22:37.542Z,100151.81
2023-04-12T06:25:04.749Z,100152.25
2023-04-12T06:27:31.633Z,100154.00
2023-04-12T06:29:58.240Z,100143.81
2023-04-12T06:32:24.946Z,100133.88
2023-04-12T06:34:51.574Z,100129.22
2023-04-12T06:37:18.241Z,100128.06
2023-04-12T06:39:44.693Z,100122.34
2023-04-12T06:42:13.243Z,100110.78
2023-04-12T06:44:41.326Z,100114.13
2023-04-12T06:47:07.889Z,100102.50
2023-04-12T06:49:34.485Z,100103.31
2023-04-12T06:52:01.126Z,100089.75
2023-04-12T06:54:27.612Z,100088.09
2023-04-12T06:56:54.052Z,100072.53
2023-04-12T06:59:20.570Z,100073.94
2023-04-12T07:01:47.067Z,100069.63
2023-04-12T07:04:13.765Z,100080.97
2023-04-12T07:06:40.536Z,100082.91
2023-04-12T07:09:07.092Z,100074.44
2023-04-12T07:11:33.628Z,100062.56
2023-04-12T07:14:00.902Z,100072.28
2023-04-12T07:16:31.203Z,100059.28
2023-04-12T07:18:59.209Z,100063.47
2023-04-12T07:21:27.468Z,100059.25
2023-04-12T07:23:54.021Z,100043.53
2023-04-12T07:26:21.757Z,100048.78
2023-04-12T07:28:48.408Z,100044.81
2023-04-12T07:31:14.844Z,100042.16
2023-04-12T07:33:42.981Z,100043.13
2023-04-12T07:36:10.619Z,100034.47
2023-04-12T07:38:37.252Z,100036.97
2023-04-12T07:41:03.876Z,100033.66
2023-04-12T07:43:30.366Z,100036.25
2023-04-12T07:45:56.901Z,100035.38
2023-04-12T07:48:23.541Z,100031.06
2023-04-12T07:50:50.678Z,100026.66
2023-04-12T07:53:22.091Z,100027.56
2023-04-12T07:55:49.079Z,100018.00
2023-04-12T07:58:16.236Z,100018.00
2023-04-12T08:00:46.766Z,100014.50
2023-04-12T08:03:14.977Z,100007.59
2023-04-12T08:05:42.219Z,100000.59
2023-04-12T08:08:12.233Z,100005.84
2023-04-12T08:10:39.741Z,100003.22
2023-04-12T08:13:07.011Z,99995.41
2023-04-12T08:15:33.767Z,99986.72
2023-04-12T08:18:01.062Z,99978.91
2023-04-12T08:20:27.713Z,99973.66
2023-04-12T08:22:54.692Z,99970.19
2023-04-12T08:25:21.469Z,99964.00
2023-04-12T08:27:49.523Z,99957.94
2023-04-12T08:30:16.040Z,99965.75
2023-04-12T08:32:42.534Z,99954.44
2023-04-12T08:35:09.732Z,99933.56
2023-04-12T08:37:36.264Z,99950.91
2023-04-12T08:40:05.230Z,99945.75
2023-04-12T08:42:34.549Z,99947.47
2023-04-12T08:45:08.027Z,99938.00
2023-04-12T08:47:36.038Z,99921.09
2023-04-12T08:50:03.673Z,99925.75
2023-04-12T08:52:33.755Z,99919.59
2023-04-12T08:55:03.171Z,99913.59
2023-04-12T08:57:31.640Z,99913.47
2023-04-12T09:00:00.993Z,99915.38
2023-04-12T09:02:28.076Z,99916.13
2023-04-12T09:04:55.534Z,99892.69
2023-04-12T09:07:30.278Z,99894.59
2023-04-12T09:09:58.476Z,99883.09
2023-04-12T09:12:25.003Z,99882.09
2023-04-12T09:15:13.417Z,99873.34
2023-04-12T09:17:41.447Z,99880.63
2023-04-12T09:20:17.264Z,99860.50
2023-04-12T09:22:46.411Z,99859.78
2023-04-12T09:25:14.278Z,99855.50
2023-04-12T09:27:51.026Z,99853.81
2023-04-12T09:30:18.829Z,99843.16
2023-04-12T09:32:45.682Z,99839.00
2023-04-12T09:35:12.272Z,99837.13
2023-04-12T09:37:39.179Z,99832.81
2023-04-12T09:40:07.575Z,99825.75
2023-04-12T09:42:35.458Z,99822.00
2023-04-12T09:45:20.279Z,99817.97
2023-04-12T09:47:46.921Z,99810.19
2023-04-12T09:50:21.117Z,99810.19
2023-04-12T09:52:48.384Z,99806.81
2023-04-12T09:55:15.676Z,99805.88
2023-04-12T09:57:43.560Z,99794.38
2023-04-12T10:00:18.365Z,99782.84
2023-04-12T10:02:47.821Z,99776.06
2023-04-12T10:05:18.194Z,99779.75
2023-04-12T10:07:45.629Z,99773.50
2023-04-12T10:10:13.680Z,99775.91
2023-04-12T10:12:42.197Z,99776.00
2023-04-12T10:15:13.665Z,99766.19
2023-04-12T10:17:53.996Z,99759.78
2023-04-12T10:20:23.008Z,99757.19
2023-04-12T10:22:52.513Z,99749.25
2023-04-12T10:25:25.169Z,99742.91
2023-04-12T10:27:51.689Z,99746.38
2023-04-12T10:30:25.365Z,99742.91
2023-04-12T10:33:10.204Z,99735.78
2023-04-12T10:35:56.467Z,99742.81
2023-04-12T10:38:28.032Z,99727.09
2023-04-12T10:41:30.044Z,99730.75
2023-04-12T10:44:28.685Z,99724.50
2023-04-12T10:46:55.265Z,99737.66
2023-04-12T10:49:21.850Z,99728.00
2023-04-12T10:52:00.958Z,99728.50
2023-04-12T10:54:27.401Z,99724.03
2023-04-12T10:56:53.903Z,99729.25
2023-04-12T10:59:20.872Z,99722.28
2023-04-12T11:02:10.768Z,99718.63
2023-04-12T11:04:37.586Z,99721.69
2023-04-12T11:07:09.716Z,99723.75
2023-04-12T11:09:36.157Z,99710.38
2023-04-12T11:12:06.491Z,99719.22
2023-04-12T11:14:34.855Z,99712.56
2023-04-12T11:17:07.459Z,99712.13
2023-04-12T11:19:34.869Z,99720.28
2023-04-12T11:22:02.365Z,99710.41
2023-04-12T11:24:29.275Z,99712.25
2023-04-12T11:26:56.922Z,99708.56
2023-04-12T11:29:27.447Z,99715.59
2023-04-12T11:31:55.960Z,99708.97
2023-04-12T11:34:22.464Z,99709.03
2023-04-12T11:36:52.817Z,99712.41
2023-04-12T11:39:20.073Z,99709.03
2023-04-12T11:41:47.881Z,99702.25
2023-04-12T11:44:18.269Z,99706.78
2023-04-12T11:46:45.546Z,99706.97
2023-04-12T11:49:18.982Z,99697.94
2023-04-12T11:51:49.001Z,99696.41
2023-04-12T11:54:16.154Z,99691.34
2023-04-12T11:56:42.628Z,99697.44
2023-04-12T11:59:09.105Z,99705.00
2023-04-12T12:01:36.023Z,99707.88
2023-04-12T12:04:03.187Z,99715.75
2023-04-12T12:06:31.515Z,99711.38
2023-04-12T12:08:58.775Z,99707.91
2023-04-12T12:11:26.692Z,99708.88
2023-04-12T12:13:57.022Z,99711.53
2023-04-12T12:16:26.435Z,99715.00
2023-04-12T12:18:53.288Z,99719.34
2023-04-12T12:21:20.711Z,99712.41
2023-04-12T12:23:47.778Z,99720.22
2023-04-12T12:26:24.560Z,99724.59
2023-04-12T12:28:57.894Z,99718.50
2023-04-12T12:31:26.663Z,99721.09
2023-04-12T12:33:58.206Z,99720.22
2023-04-12T12:36:33.020Z,99725.44
2023-04-12T12:39:07.317Z,99723.69
2023-04-12T12:41:34.312Z,99727.16
2023-04-12T12:44:00.849Z,99728.91
2023-04-12T12:46:37.381Z,99724.59
2023-04-12T12:49:13.796Z,99724.56
2023-04-12T12:51:42.112Z,99718.47
2023-04-12T12:54:08.802Z,99713.31
2023-04-12T12:56:38.195Z,99711.56
2023-04-12T12:59:04.664Z,99697.69
2023-04-12T13:01:31.369Z,99695.09
2023-04-12T13:03:58.933Z,99688.13
2023-04-12T13:06:27.105Z,99689.00
2023-04-12T13:08:55.086Z,99683.81
2023-04-12T13:11:22.018Z,99671.66
2023-04-12T13:13:48.539Z,99666.44
2023-04-12T13:16:15.693Z,99672.50
2023-04-12T13:18:43.100Z,99671.66
2023-04-12T13:21:09.555Z,99665.59
2023-04-12T13:23:36.143Z,99663.00
2023-04-12T13:26:02.659Z,99663.03
2023-04-12T13:28:29.169Z,99660.22
2023-04-12T13:30:55.815Z,99656.66
2023-04-12T13:33:22.516Z,99642.94
2023-04-12T13:35:49.236Z,99647.38
2023-04-12T13:38:15.750Z,99649.94
2023-04-12T13:40:42.219Z,99633.25
2023-04-12T13:43:08.761Z,99639.50
2023-04-12T13:45:35.967Z,99623.00
2023-04-12T13:48:02.634Z,99627.19
2023-04-12T13:50:29.157Z,99623.88
2023-04-12T13:52:55.676Z,99618.72
2023-04-12T13:55:22.185Z,99617.03
2023-04-12T13:57:48.620Z,99618.78
2023-04-12T14:00:15.643Z,99607.50
2023-04-12T14:02:42.209Z,99616.97
2023-04-12T14:05:08.986Z,99625.72
2023-04-12T14:07:35.752Z,99615.34
2023-04-12T14:10:02.291Z,99608.25
2023-04-12T14:12:28.779Z,99603.00
2023-04-12T14:14:55.369Z,99598.69
2023-04-12T14:17:21.968Z,99599.66
2023-04-12T14:19:48.542Z,99598.72
2023-04-12T14:22:15.009Z,99596.22
2023-04-12T14:24:41.700Z,99594.53
2023-04-12T14:27:08.570Z,99597.13
2023-04-12T14:29:35.069Z,99594.50
2023-04-12T14:32:01.516Z,99590.19
2023-04-12T14:34:27.983Z,99597.13
2023-04-12T14:36:56.355Z,99584.97
2023-04-12T14:39:27.844Z,99580.59
2023-04-12T14:41:54.556Z,99579.75
2023-04-12T14:44:23.019Z,99571.13
2023-04-12T14:46:51.591Z,99571.75
2023-04-12T14:49:18.511Z,99566.50
2023-04-12T14:51:45.042Z,99571.09
2023-04-12T14:54:11.508Z,99562.25
2023-04-12T14:56:45.100Z,99570.97
2023-04-12T14:59:16.452Z,99570.19
2023-04-12T15:01:43.859Z,99558.75
2023-04-12T15:04:10.820Z,99561.50
2023-04-12T15:06:42.384Z,99548.47
2023-04-12T15:09:09.866Z,99551.13
2023-04-12T15:11:36.657Z,99552.06
2023-04-12T15:14:04.268Z,99551.94
2023-04-12T15:16:31.039Z,99548.47
2023-04-12T15:18:59.560Z,99537.19
2023-04-12T15:21:28.787Z,99544.19
2023-04-12T15:23:56.300Z,99543.25
2023-04-12T15:26:22.927Z,99536.31
2023-04-12T15:28:49.399Z,99545.03
2023-04-12T15:31:16.124Z,99541.59
2023-04-12T15:33:42.671Z,99539.75
2023-04-12T15:36:09.245Z,99537.00
2023-04-12T15:38:41.265Z,99532.06
2023-04-12T15:41:07.926Z,99531.03
2023-04-12T15:43:34.411Z,99534.28
2023-04-12T15:46:01.613Z,99533.78
2023-04-12T15:48:28.432Z,99530.38
2023-04-12T15:50:56.509Z,99533.75
2023-04-12T15:53:24.844Z,99526.81
2023-04-12T15:55:54.970Z,99524.13
2023-04-12T15:58:25.192Z,99523.47
2023-04-12T16:00:53.921Z,99519.88
2023-04-12T16:03:23.613Z,99519.97
2023-04-12T16:05:54.089Z,99519.91
2023-04-12T16:08:22.385Z,99515.44
2023-04-12T16:10:50.279Z,99512.13
2023-04-12T16:13:16.853Z,99509.53
2023-04-12T16:15:43.359Z,99512.13
2023-04-12T16:18:11.193Z,99503.50
2023-04-12T16:20:37.766Z,99496.44
2023-04-12T16:23:05.132Z,99509.47
2023-04-12T16:25:31.729Z,99511.28
2023-04-12T16:28:02.282Z,99506.97
2023-04-12T16:30:30.750Z,99497.34
2023-04-12T16:32:57.942Z,99487.81
2023-04-12T16:35:24.589Z,99497.38
2023-04-12T16:37:51.337Z,99497.47
2023-04-12T16:40:18.052Z,99494.72
2023-04-12T16:42:44.843Z,99498.25
2023-04-12T16:45:13.953Z,99503.44
2023-04-12T16:47:40.927Z,99499.16
2023-04-12T16:50:12.811Z,99497.28
2023-04-12T16:52:39.993Z,99482.56
2023-04-12T16:55:06.828Z,99496.50
2023-04-12T16:57:33.277Z,99492.03
2023-04-12T17:00:00.649Z,99490.41
2023-04-12T17:02:27.434Z,99484.28
2023-04-12T17:04:54.092Z,99489.47
2023-04-12T17:07:20.565Z,99486.91
2023-04-12T17:09:47.129Z,99487.72
2023-04-12T17:12:13.584Z,99480.00
2023-04-12T17:14:40.061Z,99482.50
2023-04-12T17:17:06.922Z,99476.47
2023-04-12T17:19:33.929Z,99481.72
2023-04-12T17:22:01.338Z,99479.91
2023-04-12T17:24:29.080Z,99485.06
2023-04-12T17:26:55.823Z,99491.94
2023-04-12T17:29:22.573Z,99473.81
2023-04-12T17:31:50.802Z,99478.94
2023-04-12T17:34:19.849Z,99473.78
2023-04-12T17:36:46.843Z,99466.69
2023-04-12T17:39:13.442Z,99467.69
2023-04-12T17:41:40.075Z,99465.94
2023-04-12T17:44:06.856Z,99468.63
2023-04-12T17:46:35.509Z,99472.19
2023-04-12T17:49:05.594Z,99468.47
2023-04-12T17:51:33.653Z,99468.66
2023-04-12T17:54:00.810Z,99461.66
2023-04-12T17:56:27.541Z,99459.94
2023-04-12T17:59:02.747Z,99458.28
2023-04-12T18:01:29.396Z,99458.19
2023-04-12T18:03:57.595Z,99455.69
2023-04-12T18:06:24.222Z,99453.78
2023-04-12T18:08:50.755Z,99457.44
2023-04-12T18:11:18.245Z,99455.63
2023-04-12T18:13:44.770Z,99459.09
2023-04-12T18:16:11.335Z,99455.59
2023-04-12T18:18:37.946Z,99450.59
2023-04-12T18:21:05.906Z,99461.09
2023-04-12T18:23:32.530Z,99460.03
2023-04-12T18:25:59.005Z,99456.50
2023-04-12T18:28:25.634Z,99452.25
2023-04-12T18:30:52.134Z,99459.22
2023-04-12T18:33:18.664Z,99458.38
2023-04-12T18:35:45.612Z,99460.00
2023-04-12T18:38:12.073Z,99456.53
2023-04-12T18:40:38.794Z,99454.00
2023-04-12T18:43:05.427Z,99454.13
2023-04-12T18:45:32.289Z,99461.06
2023-04-12T18:48:05.671Z,99450.59
2023-04-12T18:50:32.291Z,99457.44
2023-04-12T18:52:58.805Z,99469.75
2023-04-12T18:55:25.695Z,99468.66
2023-04-12T18:57:52.163Z,99464.34
2023-04-12T19:00:19.761Z,99461.75
2023-04-12T19:02:46.340Z,99473.91
2023-04-12T19:05:14.815Z,99467.03
2023-04-12T19:07:41.562Z,99468.72
2023-04-12T19:10:09.194Z,99464.47
2023-04-12T19:12:35.640Z,99467.09
2023-04-12T19:15:02.161Z,99470.56
2023-04-12T19:17:29.436Z,99471.38
2023-04-12T19:19:56.536Z,99464.34
2023-04-12T19:22:26.386Z,99466.09
2023-04-12T19:24:53.804Z,99465.06
2023-04-12T19:27:22.947Z,99474.63
2023-04-12T19:29:51.768Z,99471.16
2023-04-12T19:32:18.790Z,99474.72
2023-04-12T19:34:47.643Z,99465.06
2023-04-12T19:37:14.179Z,99475.63
2023-04-12T19:39:41.188Z,99474.59
2023-04-12T19:42:07.740Z,99475.78
2023-04-12T19:44:34.768Z,99470.38
2023-04-12T19:47:01.639Z,99472.25
2023-04-12T19:49:28.772Z,99464.34
2023-04-12T19:51:55.385Z,99473.81
2023-04-12T19:54:25.945Z,99466.81
2023-04-12T19:56:53.411Z,99466.00
2023-04-12T19:59:21.200Z,99466.88
2023-04-12T20:01:48.561Z,99455.75
2023-04-12T20:04:16.677Z,99447.06
2023-04-12T20:06:44.007Z,99454.84
2023-04-12T20:09:13.757Z,99453.94
2023-04-12T20:11:41.033Z,99445.13
2023-04-12T20:14:10.591Z,99444.44
2023-04-12T20:16:38.113Z,99438.97
2023-04-12T20:19:05.029Z,99448.50
2023-04-12T20:21:32.800Z,99447.50
2023-04-12T20:23:59.413Z,99459.63
2023-04-12T20:26:31.545Z,99474.72
2023-04-12T20:29:01.402Z,99477.50
2023-04-12T20:31:28.445Z,99481.88
2023-04-12T20:33:55.871Z,99478.19
2023-04-12T20:36:22.980Z,99483.50
2023-04-12T20:38:50.920Z,99486.03
2023-04-12T20:41:17.781Z,99483.63
2023-04-12T20:43:46.672Z,99487.97
2023-04-12T20:46:18.977Z,99488.78
2023-04-12T20:48:47.495Z,99484.50
2023-04-12T20:51:15.209Z,99476.69
2023-04-12T20:53:48.768Z,99486.22
2023-04-12T20:56:16.992Z,99484.50
2023-04-12T20:58:44.397Z,99480.06
2023-04-12T21:01:14.828Z,99479.13
2023-04-12T21:03:42.656Z,99492.13
2023-04-12T21:06:09.917Z,99493.84
2023-04-12T21:08:38.752Z,99493.81
2023-04-12T21:11:06.186Z,99496.44
2023-04-12T21:13:33.506Z,99495.59
2023-04-12T21:16:02.180Z,99492.16
2023-04-12T21:18:28.813Z,99484.44
2023-04-12T21:20:58.934Z,99478.31
2023-04-12T21:23:25.477Z,99485.19
2023-04-12T21:25:51.952Z,99492.16
2023-04-12T21:28:18.410Z,99492.19
2023-04-12T21:30:46.246Z,99485.38
2023-04-12T21:33:12.802Z,99476.72
2023-04-12T21:35:40.232Z,99481.69
2023-04-12T21:38:07.521Z,99482.72
2023-04-12T21:40:33.999Z,99484.56
2023-04-12T21:43:01.490Z,99487.09
2023-04-12T21:45:28.072Z,99495.78
2023-04-12T21:47:54.544Z,99501.00
2023-04-12T21:50:21.185Z,99494.91
2023-04-12T21:52:47.872Z,99497.50
2023-04-12T21:55:14.499Z,99504.44
2023-04-12T21:57:41.394Z,99501.81
2023-04-12T22:00:10.182Z,99499.22
2023-04-12T22:02:36.966Z,99500.13
2023-04-12T22:05:13.089Z,99516.53
2023-04-12T22:07:41.339Z,99517.44
2023-04-12T22:10:12.163Z,99502.75
2023-04-12T22:12:39.535Z,99508.78
2023-04-12T22:15:06.441Z,99511.41
2023-04-12T22:17:33.411Z,99514.88
2023-04-12T22:19:59.973Z,99511.38
2023-04-12T22:22:29.936Z,99521.78
2023-04-12T22:24:56.578Z,99532.13
2023-04-12T22:27:26.343Z,99532.97
2023-04-12T22:29:53.531Z,99537.31
2023-04-12T22:32:20.036Z,99539.91
2023-04-12T22:34:48.357Z,99540.81
2023-04-12T22:37:16.680Z,99556.38
2023-04-12T22:39:43.203Z,99547.75
2023-04-12T22:44:43.094Z,99555.53
2023-04-12T22:47:10.832Z,99559.00
2023-04-12T22:49:50.722Z,99554.72
2023-04-12T22:52:22.107Z,99540.84
2023-04-12T22:54:49.351Z,99542.53
2023-04-12T22:57:16.418Z,99531.28
2023-04-12T22:59:43.535Z,99539.91
2023-04-12T23:02:10.825Z,99553.63
2023-04-12T23:04:38.275Z,99556.28
2023-04-12T23:07:05.147Z,99562.34
2023-04-12T23:09:33.597Z,99556.31
2023-04-12T23:12:01.114Z,99560.66
2023-04-12T23:17:19.574Z,99559.75
2023-04-12T23:19:46.710Z,99559.72
2023-04-12T23:22:44.449Z,99556.31
2023-04-12T23:25:21.658Z,99557.22
2023-04-12T23:27:49.367Z,99551.09
2023-04-12T23:30:18.008Z,99557.13
2023-04-12T23:32:45.453Z,99548.59
2023-04-12T23:35:12.666Z,99539.91
2023-04-12T23:37:41.116Z,99537.25
2023-04-12T23:40:14.148Z,99537.19
2023-04-12T23:42:41.889Z,99540.78
2023-04-12T23:45:10.636Z,99538.16
2023-04-12T23:47:37.399Z,99529.56
2023-04-12T23:50:05.795Z,99528.66
2023-04-12T23:52:32.593Z,99522.59
2023-04-12T23:54:59.511Z,99526.91
2023-04-12T23:57:26.188Z,99523.41
2023-04-12T23:59:52.996Z,99536.41
